Utah County RPA :: 2MCCAMMON

liberation: 2020-09-12  07:35     latitude: 42.659683     longitude: -112.202217 171 birds
# LOFT PRING MILES ARRIVAL SPEED ToWin
1 Peery Loft AU20-UCA-0025 182.087 2020-09-12 11:24:09.199 1398.511 00:00:00
2 Peery Loft AU20-UCA-0004 182.087 2020-09-12 11:24:09.877 1398.442 00:00:01
3 Peery Loft AU20-UCA-0019 182.087 2020-09-12 11:24:10.823 1398.346 00:00:02
4 Peery Loft AU20-UCA-0022 182.087 2020-09-12 11:24:12.852 1398.139 00:00:04
5 Peery Loft AU20-UCA-0012 182.087 2020-09-12 11:24:12.969 1398.128 00:00:04
6 Peery Loft AU20-UCA-0031 182.087 2020-09-12 11:24:13.330 1398.091 00:00:04
7 Peery Loft AU20-UCA-0008 182.087 2020-09-12 11:24:13.721 1398.051 00:00:05
8 Peery Loft AU20-UCA-0042 182.087 2020-09-12 11:25:32.117 1390.127 00:01:23
9 Peery Loft AU20-UCA-0001 182.087 2020-09-12 11:25:32.485 1390.090 00:01:23
10 Peery Loft AU20-UCA-0038 182.087 2020-09-12 11:25:34.661 1389.872 00:01:25
11 Riley Allred AU20-UCA-101 178.13 2020-09-12 11:21:23.514 1384.802 00:02:13
12 Cole Allred AU20-NLI-2015 178.13 2020-09-12 11:21:30.939 1384.046 00:02:21
13 Riley Allred AU20-UCA-136 178.13 2020-09-12 11:21:35.502 1383.581 00:02:25
14 Riley Allred AU20-UCA-169 178.13 2020-09-12 11:21:40.159 1383.108 00:02:30
15 Riley Allred AU20-UCA-102 178.13 2020-09-12 11:22:24.429 1378.620 00:03:14
16 Craig Allred AU20-UVI-367 178.13 2020-09-12 11:22:27.360 1378.324 00:03:17
17 Riley Allred AU20-UCA-156 178.13 2020-09-12 11:22:39.760 1377.073 00:03:29
18 Riley Allred AU20-UCA-145 178.13 2020-09-12 11:22:41.687 1376.878 00:03:31
19 Riley Allred AU20-UCA-106 178.13 2020-09-12 11:22:47.098 1376.333 00:03:37
20 Riley Allred AU20-UCA-139 178.13 2020-09-12 11:22:49.108 1376.131 00:03:39
21 Craig Allred AU20-UVI-361 178.13 2020-09-12 11:24:30.951 1365.954 00:05:21
22 Riley Allred AU20-UCA-107 178.13 2020-09-12 11:24:31.231 1365.926 00:05:21
23 Craig Allred AU20-UVI-352 178.13 2020-09-12 11:24:31.246 1365.925 00:05:21
24 Cole Allred AU20-NLI-2417 178.13 2020-09-12 11:24:33.367 1365.714 00:05:23
25 Riley Allred AU20-UCA-147 178.13 2020-09-12 11:24:53.998 1363.672 00:05:44
26 Craig Allred AU20-UVI-329 178.13 2020-09-12 11:24:58.119 1363.264 00:05:48
27 Riley Allred AU20-UCA-153 178.13 2020-09-12 11:24:58.913 1363.186 00:05:49
28 Craig Allred AU20-UVI-341 178.13 2020-09-12 11:25:25.237 1360.590 00:06:15
29 Ross Johnson AU20-NEBO-42 176.788 2020-09-12 11:25:40.873 1348.814 00:08:12
30 Ross Johnson AU20-NEBO-15 176.788 2020-09-12 11:25:42.312 1348.674 00:08:13
31 Peery Loft AU20-UCA-0034 182.087 2020-09-12 11:33:02.782 1346.265 00:08:54
32 Sherwood Loft AU20-NEBO-648 185.761 2020-09-12 11:38:53.804 1340.482 00:10:07
33 Peery Loft AU20-UCA-0049 182.087 2020-09-12 11:34:51.519 1336.093 00:10:42
34 Sherwood Loft AU20-UCA-427 185.761 2020-09-12 11:40:21.977 1332.453 00:11:35
35 Iron Will AU20-UCA-0204 181.718 2020-09-12 11:35:03.361 1332.290 00:11:22
36 Peery Loft AU20-UCA-0005 182.087 2020-09-12 11:37:01.699 1324.115 00:12:53
37 Peery Loft AU20-UCA-0044 182.087 2020-09-12 11:37:05.272 1323.790 00:12:56
38 Iron Will AU20-UCA-0222 181.718 2020-09-12 11:36:48.321 1322.652 00:13:07
39 Iron Will AU20-UCA-0234 181.718 2020-09-12 11:37:45.425 1317.466 00:14:04
40 Iron Will AU20-UCA-0215 181.718 2020-09-12 11:37:47.765 1317.254 00:14:06
41 Iron Will AU20-UCA-0039 181.718 2020-09-12 11:37:51.377 1316.928 00:14:10
42 Peery Loft AU20-UCA-0007 182.087 2020-09-12 11:38:32.530 1315.885 00:14:23
43 Iron Will AU20-UCA-0290 181.718 2020-09-12 11:38:19.116 1314.426 00:14:38
44 Craig Allred AU20-UVI-303 178.13 2020-09-12 11:34:44.838 1307.660 00:15:34
45 Craig Allred AU20-UVI-359 178.13 2020-09-12 11:34:45.879 1307.566 00:15:36
46 Cole Allred AU20-NLI-2413 178.13 2020-09-12 11:34:46.961 1307.467 00:15:37
47 Ross Johnson AU20-NEBO-25 176.788 2020-09-12 11:32:58.592 1307.465 00:15:30
48 Cole Allred AU20-HARM-1695 178.13 2020-09-12 11:34:49.566 1307.231 00:15:39
49 Ross Johnson AU20-NEBO-29 176.788 2020-09-12 11:33:03.073 1307.055 00:15:34
50 Iron Will AU20-UCA-0225 181.718 2020-09-12 11:39:56.426 1305.722 00:16:15
51 Ross Johnson AU20-NEBO-56 176.788 2020-09-12 11:33:19.243 1305.577 00:15:50
52 Sherwood Loft AU20-NEBO-643 185.761 2020-09-12 11:46:15.431 1301.213 00:17:29
53 Sherwood Loft AU20-UCA-413 185.761 2020-09-12 11:46:40.659 1299.039 00:17:54
54 Sherwood Loft AU20-UCA-417 185.761 2020-09-12 11:46:47.545 1298.447 00:18:01
55 Sherwood Loft AU20-UCA-439 185.761 2020-09-12 11:48:28.024 1289.868 00:19:41
56 Sherwood Loft AU20-NEBO-278 185.761 2020-09-12 11:51:26.446 1274.911 00:22:40
57 Sherwood Loft AU20-UCA-450 185.761 2020-09-12 11:51:34.273 1274.263 00:22:48
58 Peery Loft AU20-UCA-0035 182.087 2020-09-12 11:46:41.241 1273.300 00:22:32
59 Riley Allred AU20-UCA-150 178.13 2020-09-12 11:41:13.149 1273.289 00:22:03
60 Iron Will AU20-UCA-0206 181.718 2020-09-12 11:46:40.244 1270.804 00:22:59
61 Iron Will AU20-UCA-0231 181.718 2020-09-12 11:48:17.823 1262.645 00:24:36
62 Craig Allred AU20-UVI-314 178.13 2020-09-12 11:43:44.402 1260.384 00:24:34
63 Sherwood Loft AU20-UCA-449 185.761 2020-09-12 11:55:57.135 1252.870 00:27:11
64 Ross Johnson AU20-NEBO-45 176.788 2020-09-12 11:43:53.066 1250.163 00:26:24
65 Ross Johnson AU20-NEBO-13 176.788 2020-09-12 11:44:07.643 1248.944 00:26:39
66 Iron Will AU20-UCA-0212 181.718 2020-09-12 11:52:02.564 1244.245 00:28:21
67 Iron Will AU20-UCA-0250 181.718 2020-09-12 11:52:18.049 1242.997 00:28:37
68 Riley Allred AU20-UCA-109 178.13 2020-09-12 11:50:48.954 1225.522 00:31:39
69 Dry Creek Lofts AU20-NEBO-348 183.792 2020-09-12 11:59:28.453 1223.086 00:33:10
70 Ross Johnson AU20-NEBO-20 176.788 2020-09-12 11:49:46.966 1221.221 00:32:18
71 Ross Johnson AU20-NEBO-34 176.788 2020-09-12 11:51:08.475 1214.744 00:33:39
72 Iron Will AU20-UCA-0265 181.718 2020-09-12 11:58:32.911 1213.531 00:34:52
73 Peery Loft AU20-UCA-0003 182.087 2020-09-12 11:59:22.358 1212.203 00:35:13
74 Cole Allred AU20-NLI-2419 178.13 2020-09-12 11:54:17.109 1209.125 00:35:07
75 Ross Johnson AU20-NEBO-37 176.788 2020-09-12 11:54:58.986 1196.793 00:37:30
76 Craig Allred AU20-UVI-304 178.13 2020-09-12 11:57:06.413 1196.108 00:37:56
77 Cole Allred IF20-VDB-31 178.13 2020-09-12 11:57:11.968 1195.685 00:38:02
78 Craig Allred AU20-UVI-311 178.13 2020-09-12 11:57:22.357 1194.896 00:38:12
79 Cole Allred IF20-VDB-0055 178.13 2020-09-12 11:57:25.042 1194.692 00:38:15
80 Peery Loft AU20-UCA-0067 182.087 2020-09-12 12:04:29.255 1189.195 00:40:20
81 Iron Will AU20-UCA-0274 181.718 2020-09-12 12:04:03.103 1188.709 00:40:22
82 Sherwood Loft AU20-UCA-477 185.761 2020-09-12 12:10:10.302 1188.128 00:41:24
83 Sherwood Loft AU20-UCA-490 185.761 2020-09-12 12:10:12.496 1187.970 00:41:26
84 Sherwood Loft AU20-UCA-474 185.761 2020-09-12 12:10:22.626 1187.242 00:41:36
85 Peery Loft AU20-UCA-0033 182.087 2020-09-12 12:04:59.864 1186.949 00:40:51
86 Ross Johnson AU20-NEBO-33 176.788 2020-09-12 11:57:12.082 1186.668 00:39:43
87 Sherwood Loft AU20-NEBO-273 185.761 2020-09-12 12:10:40.489 1185.959 00:41:54
88 Riley Allred AU20-UCA-160 178.13 2020-09-12 12:00:16.290 1181.838 00:41:06
89 Iron Will AU20-UCA-0277 181.718 2020-09-12 12:09:15.796 1166.121 00:45:34
90 Iron Will AU20-UCA-0261 181.718 2020-09-12 12:11:07.257 1158.276 00:47:26
91 Iron Will AU20-UCA-0227 181.718 2020-09-12 12:11:10.715 1158.034 00:47:29
92 Iron Will AU20-UCA-0281 181.718 2020-09-12 12:19:57.634 1122.346 00:56:16
93 Iron Will AU20-UCA-0201 181.718 2020-09-12 12:22:05.631 1114.006 00:58:24
94 Iron Will AU20-UCA-0262 181.718 2020-09-12 12:22:37.362 1111.957 00:58:56
95 Ross Johnson AU20-NEBO-28 176.788 2020-09-12 12:14:58.887 1111.309 00:57:30
96 Dry Creek Lofts AU20-NEBO-325 183.792 2020-09-12 12:26:19.520 1110.355 01:00:02
97 Dry Creek Lofts AU20-NEBO-356 183.792 2020-09-12 12:26:25.947 1109.947 01:00:08
98 Riley Allred AU20-UCA-144 178.13 2020-09-12 12:17:28.741 1109.845 00:58:18
99 Iron Will AU20-UCA-0220 181.718 2020-09-12 12:24:19.230 1105.432 01:00:38
100 Iron Will AU20-UCA-0283 181.718 2020-09-12 12:24:20.299 1105.364 01:00:39
101 Sherwood Loft AU20-UCA-479 185.761 2020-09-12 12:30:52.912 1104.965 01:02:06
102 Sherwood Loft AU20-UCA-483 185.761 2020-09-12 12:32:18.467 1099.666 01:03:32
103 Sherwood Loft AU20-NEBO-279 185.761 2020-09-12 12:32:38.283 1098.445 01:03:52
104 Iron Will AU20-UCA-233 181.718 2020-09-12 12:27:50.177 1092.160 01:04:09
105 Iron Will AU20-UCA-0246 181.718 2020-09-12 12:28:26.175 1089.927 01:04:45
106 Craig Allred AU20-UVI-366 178.13 2020-09-12 12:23:09.265 1087.986 01:03:59
107 Iron Will AU20-UCA-0266 181.718 2020-09-12 12:36:26.839 1060.962 01:12:45
108 Cole Allred AU20-HARM-1689 178.13 2020-09-12 12:43:27.417 1016.375 01:24:17
109 Iron Will AU20-UCA-0258 181.718 2020-09-12 12:56:19.721 995.318 01:32:38
110 Cole Allred AU20-NLI-2121 178.13 2020-09-12 12:52:36.159 987.108 01:33:26
111 Iron Will AU20-UCA-0037 181.718 2020-09-12 13:01:40.964 979.006 01:38:00
112 Riley Allred AU20-UCA-161 178.13 2020-09-12 13:04:10.700 952.396 01:45:00
113 Sherwood Loft AU20-NEBO-664 185.761 2020-09-12 13:28:11.702 925.662 01:59:25
114 Sherwood Loft AU20-UCA-445 185.761 2020-09-12 13:39:02.316 898.089 02:10:16
115 Cole Allred AU20-NLI-2021 178.13 2020-09-12 13:40:48.627 857.023 02:21:38
116 Ross Johnson AU20-NEBO-55 176.788 2020-09-12 14:01:17.358 805.474 02:43:48
117 Sherwood Loft AU20-UCA-429 185.761 2020-09-12 14:22:05.259 803.117 02:53:19
118 Sherwood Loft AU20-NEBO-284 185.761 2020-09-12 14:50:52.002 750.090 03:22:05
119 Riley Allred AU20-UCA-119 178.13 2020-09-12 14:39:08.592 739.156 03:19:58
120 Sherwood Loft AU20-NEBO-285 185.761 2020-09-12 14:59:36.059 735.354 03:30:49
121 Iron Will AU20-UCA-0260 181.718 2020-09-12 14:54:45.347 727.277 03:31:04
122 Ross Johnson AU20-NEBO-40 176.788 2020-09-12 15:05:43.589 690.321 03:48:15
123 Dry Creek Lofts AU20-NEBO-333 183.792 2020-09-12 15:47:15.077 657.133 04:20:57
124 Sherwood Loft AU20-UCA-475 185.761 2020-09-12 15:54:41.988 654.271 04:25:55
125 Sherwood Loft AU20-UCA-419 185.761 2020-09-12 16:31:08.017 609.809 05:02:21
126 Dry Creek Lofts AU20-NEBO-328 183.792 2020-09-12 16:26:02.738 609.128 04:59:45
127 Sherwood Loft AU20-UCA-454 185.761 2020-09-12 17:02:51.541 575.740 05:34:05
128 Sherwood Loft AU20-UCA-426 185.761 2020-09-12 17:41:31.058 539.043 06:12:44
129 Sherwood Loft AU20-UCA-415 185.761 2020-09-12 18:54:05.091 481.441 07:25:18
130 Sherwood Loft AU20-NEBO-295 185.761 2020-09-13 08:51:16.122 366.406 10:58:31
Cole Allred AU20-HARM-2617 0 0000-00-00 00:00:00.000 0.000 00:00:00
Cole Allred AU20-NLI-2124 0 0000-00-00 00:00:00.000 0.000 00:00:00
Cole Allred IF20-VDB-0060 0 0000-00-00 00:00:00.000 0.000 00:00:00
Dry Creek Lofts AU-20-NEBO-323 0 0000-00-00 00:00:00.000 0.000 00:00:00
Dry Creek Lofts AU20-NEB0-334 0 0000-00-00 00:00:00.000 0.000 00:00:00
Dry Creek Lofts AU20-NEBO-301 0 0000-00-00 00:00:00.000 0.000 00:00:00
Dry Creek Lofts AU20-NEBO-303 0 0000-00-00 00:00:00.000 0.000 00:00:00
Dry Creek Lofts AU20-NEBO-305 0 0000-00-00 00:00:00.000 0.000 00:00:00
Dry Creek Lofts AU20-NEBO-311 0 0000-00-00 00:00:00.000 0.000 00:00:00
Dry Creek Lofts AU20-NEBO-315 0 0000-00-00 00:00:00.000 0.000 00:00:00
Dry Creek Lofts AU20-NEBO-319 0 0000-00-00 00:00:00.000 0.000 00:00:00
Dry Creek Lofts AU20-NEBO-320 0 0000-00-00 00:00:00.000 0.000 00:00:00
Dry Creek Lofts AU20-NEBO-327 0 0000-00-00 00:00:00.000 0.000 00:00:00
Dry Creek Lofts AU20-NEBO-329 0 0000-00-00 00:00:00.000 0.000 00:00:00
Dry Creek Lofts AU20-NEBO-332 0 0000-00-00 00:00:00.000 0.000 00:00:00
Dry Creek Lofts AU20-NEBO-336 0 0000-00-00 00:00:00.000 0.000 00:00:00
Dry Creek Lofts AU20-NEBO-338 0 0000-00-00 00:00:00.000 0.000 00:00:00
Dry Creek Lofts AU20-NEBO-340 0 0000-00-00 00:00:00.000 0.000 00:00:00
Dry Creek Lofts AU20-NEBO-346 0 0000-00-00 00:00:00.000 0.000 00:00:00
Dry Creek Lofts AU20-NEBO-347 0 0000-00-00 00:00:00.000 0.000 00:00:00
Dry Creek Lofts AU20-NEBO-349 0 0000-00-00 00:00:00.000 0.000 00:00:00
Dry Creek Lofts AU20-NEBO-352 0 0000-00-00 00:00:00.000 0.000 00:00:00
Dry Creek Lofts AU20-NEBO-357 0 0000-00-00 00:00:00.000 0.000 00:00:00
Dry Creek Lofts AU20-NEBO-360 0 0000-00-00 00:00:00.000 0.000 00:00:00
Dry Creek Lofts AU20-NEBO-361 0 0000-00-00 00:00:00.000 0.000 00:00:00
Dry Creek Lofts AU20-NEBO-365 0 0000-00-00 00:00:00.000 0.000 00:00:00
Dry Creek Lofts AU20-UCA-301 0 0000-00-00 00:00:00.000 0.000 00:00:00
Iron Will AU20-UCA-0205 0 0000-00-00 00:00:00.000 0.000 00:00:00
Peery Loft AU20-UCA-0013 0 0000-00-00 00:00:00.000 0.000 00:00:00
Peery Loft AU20-UCA-0015 0 0000-00-00 00:00:00.000 0.000 00:00:00
Peery Loft AU20-UCA-0032 0 0000-00-00 00:00:00.000 0.000 00:00:00
Peery Loft AU20-UCA-0041 0 0000-00-00 00:00:00.000 0.000 00:00:00
Riley Allred AU20-UCA-127 0 0000-00-00 00:00:00.000 0.000 00:00:00
Ross Johnson AU20-NEBO-32 0 0000-00-00 00:00:00.000 0.000 00:00:00
Ross Johnson AU20-NEBO-64 0 0000-00-00 00:00:00.000 0.000 00:00:00
Sherwood Loft AU20-NEBO-209 0 0000-00-00 00:00:00.000 0.000 00:00:00
Sherwood Loft AU20-NEBO-634 0 0000-00-00 00:00:00.000 0.000 00:00:00
Sherwood Loft AU20-NEBO-638 0 0000-00-00 00:00:00.000 0.000 00:00:00
Sherwood Loft AU20-UCA-409 0 0000-00-00 00:00:00.000 0.000 00:00:00
Sherwood Loft AU20-UCA-410 0 0000-00-00 00:00:00.000 0.000 00:00:00
Sherwood Loft AU20-UCA-478 0 0000-00-00 00:00:00.000 0.000 00:00:00